sensor_id;sensor_type;location;lat;lon;timestamp;temperature;humidity
20670;DHT22;10494;50.868;4.180;2022-08-01T00:01:03;22.00;99.90
20670;DHT22;10494;50.868;4.180;2022-08-01T00:03:29;21.90;99.90
20670;DHT22;10494;50.868;4.180;2022-08-01T00:05:54;22.00;99.90
20670;DHT22;10494;50.868;4.180;2022-08-01T00:08:20;22.10;99.90
20670;DHT22;10494;50.868;4.180;2022-08-01T00:10:46;21.90;99.90
20670;DHT22;10494;50.868;4.180;2022-08-01T00:13:11;21.90;99.90
20670;DHT22;10494;50.868;4.180;2022-08-01T00:15:37;21.90;99.90
20670;DHT22;10494;50.868;4.180;2022-08-01T00:18:02;21.90;99.90
20670;DHT22;10494;50.868;4.180;2022-08-01T00:20:28;21.90;99.90
20670;DHT22;10494;50.868;4.180;2022-08-01T00:22:54;21.80;99.90
20670;DHT22;10494;50.868;4.180;2022-08-01T00:25:19;21.80;99.90
20670;DHT22;10494;50.868;4.180;2022-08-01T00:27:45;21.80;99.90
20670;DHT22;10494;50.868;4.180;2022-08-01T00:30:10;21.80;99.90
20670;DHT22;10494;50.868;4.180;2022-08-01T00:32:36;22.00;99.90
20670;DHT22;10494;50.868;4.180;2022-08-01T00:35:02;22.10;99.90
20670;DHT22;10494;50.868;4.180;2022-08-01T00:37:28;22.10;99.90
20670;DHT22;10494;50.868;4.180;2022-08-01T00:39:53;22.20;99.90
20670;DHT22;10494;50.868;4.180;2022-08-01T00:42:19;22.50;99.90
20670;DHT22;10494;50.868;4.180;2022-08-01T00:44:45;22.40;99.90
20670;DHT22;10494;50.868;4.180;2022-08-01T00:47:11;22.30;99.90
20670;DHT22;10494;50.868;4.180;2022-08-01T00:49:36;22.00;99.90
20670;DHT22;10494;50.868;4.180;2022-08-01T00:52:03;22.10;99.90
20670;DHT22;10494;50.868;4.180;2022-08-01T00:54:30;22.00;99.90
20670;DHT22;10494;50.868;4.180;2022-08-01T00:56:57;22.00;99.90
20670;DHT22;10494;50.868;4.180;2022-08-01T00:59:23;21.80;99.90
20670;DHT22;10494;50.868;4.180;2022-08-01T01:01:49;21.70;99.90
20670;DHT22;10494;50.868;4.180;2022-08-01T01:04:14;21.70;99.90
20670;DHT22;10494;50.868;4.180;2022-08-01T01:09:59;21.60;99.90
20670;DHT22;10494;50.868;4.180;2022-08-01T01:12:37;21.60;99.90
20670;DHT22;10494;50.868;4.180;2022-08-01T01:15:25;21.40;99.90
20670;DHT22;10494;50.868;4.180;2022-08-01T01:17:57;21.40;99.90
20670;DHT22;10494;50.868;4.180;2022-08-01T01:20:30;21.30;99.90
20670;DHT22;10494;50.868;4.180;2022-08-01T01:30:36;21.40;99.90
20670;DHT22;10494;50.868;4.180;2022-08-01T01:33:06;21.40;99.90
20670;DHT22;10494;50.868;4.180;2022-08-01T01:35:36;21.30;99.90
20670;DHT22;10494;50.868;4.180;2022-08-01T01:38:08;21.50;99.90
20670;DHT22;10494;50.868;4.180;2022-08-01T01:40:35;21.50;99.90
20670;DHT22;10494;50.868;4.180;2022-08-01T01:43:02;21.30;99.90
20670;DHT22;10494;50.868;4.180;2022-08-01T01:45:28;21.30;99.90
20670;DHT22;10494;50.868;4.180;2022-08-01T01:47:54;21.30;99.90
20670;DHT22;10494;50.868;4.180;2022-08-01T01:50:23;21.30;99.90
20670;DHT22;10494;50.868;4.180;2022-08-01T01:52:50;21.50;99.90
20670;DHT22;10494;50.868;4.180;2022-08-01T01:55:17;21.40;99.90
20670;DHT22;10494;50.868;4.180;2022-08-01T01:57:44;21.30;99.90
20670;DHT22;10494;50.868;4.180;2022-08-01T02:00:12;21.20;99.90
20670;DHT22;10494;50.868;4.180;2022-08-01T02:02:38;21.30;99.90
20670;DHT22;10494;50.868;4.180;2022-08-01T02:05:06;21.30;99.90
20670;DHT22;10494;50.868;4.180;2022-08-01T02:07:34;21.40;99.90
20670;DHT22;10494;50.868;4.180;2022-08-01T02:10:00;21.40;99.90
20670;DHT22;10494;50.868;4.180;2022-08-01T02:12:28;21.40;99.90
20670;DHT22;10494;50.868;4.180;2022-08-01T02:14:55;21.40;99.90
20670;DHT22;10494;50.868;4.180;2022-08-01T02:17:22;21.40;99.90
20670;DHT22;10494;50.868;4.180;2022-08-01T02:19:49;21.40;99.90
20670;DHT22;10494;50.868;4.180;2022-08-01T02:22:44;21.60;99.90
20670;DHT22;10494;50.868;4.180;2022-08-01T02:25:25;21.50;99.90
20670;DHT22;10494;50.868;4.180;2022-08-01T02:28:06;21.30;99.90
20670;DHT22;10494;50.868;4.180;2022-08-01T02:30:35;21.40;99.90
20670;DHT22;10494;50.868;4.180;2022-08-01T02:33:23;21.40;99.90
20670;DHT22;10494;50.868;4.180;2022-08-01T02:35:52;21.50;99.90
20670;DHT22;10494;50.868;4.180;2022-08-01T02:38:20;21.40;99.90
20670;DHT22;10494;50.868;4.180;2022-08-01T02:40:50;21.50;99.90
20670;DHT22;10494;50.868;4.180;2022-08-01T02:43:19;21.60;99.90
20670;DHT22;10494;50.868;4.180;2022-08-01T02:45:49;21.50;99.90
20670;DHT22;10494;50.868;4.180;2022-08-01T02:48:18;21.50;99.90
20670;DHT22;10494;50.868;4.180;2022-08-01T02:50:49;21.40;99.90
20670;DHT22;10494;50.868;4.180;2022-08-01T02:53:19;21.30;99.90
20670;DHT22;10494;50.868;4.180;2022-08-01T02:55:47;21.40;99.90
20670;DHT22;10494;50.868;4.180;2022-08-01T02:58:15;21.40;99.90
20670;DHT22;10494;50.868;4.180;2022-08-01T03:00:43;21.30;99.90
20670;DHT22;10494;50.868;4.180;2022-08-01T03:03:10;21.10;99.90
20670;DHT22;10494;50.868;4.180;2022-08-01T03:05:37;21.20;99.90
20670;DHT22;10494;50.868;4.180;2022-08-01T03:08:06;21.20;99.90
20670;DHT22;10494;50.868;4.180;2022-08-01T03:10:35;21.10;99.90
20670;DHT22;10494;50.868;4.180;2022-08-01T03:13:03;21.10;99.90
20670;DHT22;10494;50.868;4.180;2022-08-01T03:15:31;21.00;99.90
20670;DHT22;10494;50.868;4.180;2022-08-01T03:17:59;20.90;99.90
20670;DHT22;10494;50.868;4.180;2022-08-01T03:20:27;20.80;99.90
20670;DHT22;10494;50.868;4.180;2022-08-01T03:22:54;20.70;99.90
20670;DHT22;10494;50.868;4.180;2022-08-01T03:25:21;20.50;99.90
20670;DHT22;10494;50.868;4.180;2022-08-01T03:27:54;20.50;99.90
20670;DHT22;10494;50.868;4.180;2022-08-01T03:30:22;20.50;99.90
20670;DHT22;10494;50.868;4.180;2022-08-01T03:32:47;20.60;99.90
20670;DHT22;10494;50.868;4.180;2022-08-01T03:35:13;20.60;99.90
20670;DHT22;10494;50.868;4.180;2022-08-01T03:37:47;20.60;99.90
20670;DHT22;10494;50.868;4.180;2022-08-01T03:43:02;20.20;99.90
20670;DHT22;10494;50.868;4.180;2022-08-01T03:45:34;20.20;99.90
20670;DHT22;10494;50.868;4.180;2022-08-01T03:48:03;20.20;99.90
20670;DHT22;10494;50.868;4.180;2022-08-01T03:50:31;20.30;99.90
20670;DHT22;10494;50.868;4.180;2022-08-01T03:53:00;20.30;99.90
20670;DHT22;10494;50.868;4.180;2022-08-01T03:55:27;20.30;99.90
20670;DHT22;10494;50.868;4.180;2022-08-01T03:57:53;20.50;99.90
20670;DHT22;10494;50.868;4.180;2022-08-01T04:00:19;20.50;99.90
20670;DHT22;10494;50.868;4.180;2022-08-01T04:02:46;20.40;99.90
20670;DHT22;10494;50.868;4.180;2022-08-01T04:05:13;20.30;99.90
20670;DHT22;10494;50.868;4.180;2022-08-01T04:07:39;20.20;99.90
20670;DHT22;10494;50.868;4.180;2022-08-01T04:10:05;20.20;99.90
20670;DHT22;10494;50.868;4.180;2022-08-01T04:12:31;20.20;99.90
20670;DHT22;10494;50.868;4.180;2022-08-01T04:14:58;20.00;99.90
20670;DHT22;10494;50.868;4.180;2022-08-01T04:17:24;20.10;99.90
20670;DHT22;10494;50.868;4.180;2022-08-01T04:19:50;20.30;99.90
20670;DHT22;10494;50.868;4.180;2022-08-01T04:22:16;20.20;99.90
20670;DHT22;10494;50.868;4.180;2022-08-01T04:24:46;20.10;99.90
20670;DHT22;10494;50.868;4.180;2022-08-01T04:27:17;20.10;99.90
20670;DHT22;10494;50.868;4.180;2022-08-01T04:29:45;20.10;99.90
20670;DHT22;10494;50.868;4.180;2022-08-01T04:32:13;20.20;99.90
20670;DHT22;10494;50.868;4.180;2022-08-01T04:34:40;20.10;99.90
20670;DHT22;10494;50.868;4.180;2022-08-01T04:37:09;20.10;99.90
20670;DHT22;10494;50.868;4.180;2022-08-01T04:39:37;20.00;99.90
20670;DHT22;10494;50.868;4.180;2022-08-01T04:42:05;20.00;99.90
20670;DHT22;10494;50.868;4.180;2022-08-01T04:44:32;20.10;99.90
20670;DHT22;10494;50.868;4.180;2022-08-01T04:46:59;19.90;99.90
20670;DHT22;10494;50.868;4.180;2022-08-01T04:49:26;19.60;99.90
20670;DHT22;10494;50.868;4.180;2022-08-01T04:51:54;19.60;99.90
20670;DHT22;10494;50.868;4.180;2022-08-01T04:54:29;19.60;99.90
20670;DHT22;10494;50.868;4.180;2022-08-01T04:56:55;19.40;99.90
20670;DHT22;10494;50.868;4.180;2022-08-01T04:59:25;19.40;99.90
20670;DHT22;10494;50.868;4.180;2022-08-01T05:02:14;19.50;99.90
20670;DHT22;10494;50.868;4.180;2022-08-01T05:04:42;19.70;99.90
20670;DHT22;10494;50.868;4.180;2022-08-01T05:07:08;19.90;99.90
20670;DHT22;10494;50.868;4.180;2022-08-01T05:09:34;19.90;99.90
20670;DHT22;10494;50.868;4.180;2022-08-01T05:12:02;20.00;99.90
20670;DHT22;10494;50.868;4.180;2022-08-01T05:14:29;20.00;99.90
20670;DHT22;10494;50.868;4.180;2022-08-01T05:17:01;20.20;99.90
20670;DHT22;10494;50.868;4.180;2022-08-01T05:19:29;20.20;99.90
20670;DHT22;10494;50.868;4.180;2022-08-01T05:21:57;20.40;99.90
20670;DHT22;10494;50.868;4.180;2022-08-01T05:24:23;20.50;99.90
20670;DHT22;10494;50.868;4.180;2022-08-01T05:26:49;20.40;99.90
20670;DHT22;10494;50.868;4.180;2022-08-01T05:29:15;20.40;99.90
20670;DHT22;10494;50.868;4.180;2022-08-01T05:31:41;20.10;99.90
20670;DHT22;10494;50.868;4.180;2022-08-01T05:34:06;20.10;99.90
20670;DHT22;10494;50.868;4.180;2022-08-01T05:36:32;20.20;99.90
20670;DHT22;10494;50.868;4.180;2022-08-01T05:38:58;20.10;99.90
20670;DHT22;10494;50.868;4.180;2022-08-01T05:41:23;20.10;99.90
20670;DHT22;10494;50.868;4.180;2022-08-01T05:43:49;20.10;99.90
20670;DHT22;10494;50.868;4.180;2022-08-01T05:46:15;20.40;99.90
20670;DHT22;10494;50.868;4.180;2022-08-01T05:48:40;20.70;99.90
20670;DHT22;10494;50.868;4.180;2022-08-01T05:51:06;20.80;99.90
20670;DHT22;10494;50.868;4.180;2022-08-01T05:53:31;20.50;99.90
20670;DHT22;10494;50.868;4.180;2022-08-01T05:55:59;20.40;99.90
20670;DHT22;10494;50.868;4.180;2022-08-01T05:58:26;20.60;99.90
20670;DHT22;10494;50.868;4.180;2022-08-01T06:00:51;20.70;99.90
20670;DHT22;10494;50.868;4.180;2022-08-01T06:03:17;20.80;99.90
20670;DHT22;10494;50.868;4.180;2022-08-01T06:05:43;20.80;99.90
20670;DHT22;10494;50.868;4.180;2022-08-01T06:08:08;20.70;99.90
20670;DHT22;10494;50.868;4.180;2022-08-01T06:10:34;20.40;99.90
20670;DHT22;10494;50.868;4.180;2022-08-01T06:13:00;20.30;99.90
20670;DHT22;10494;50.868;4.180;2022-08-01T06:15:28;20.40;99.90
20670;DHT22;10494;50.868;4.180;2022-08-01T06:17:55;20.50;99.90
20670;DHT22;10494;50.868;4.180;2022-08-01T06:20:20;20.20;99.90
20670;DHT22;10494;50.868;4.180;2022-08-01T06:22:46;19.90;99.90
20670;DHT22;10494;50.868;4.180;2022-08-01T06:25:12;19.90;99.90
20670;DHT22;10494;50.868;4.180;2022-08-01T06:27:37;20.00;99.90
20670;DHT22;10494;50.868;4.180;2022-08-01T06:30:04;20.20;99.90
20670;DHT22;10494;50.868;4.180;2022-08-01T06:32:31;19.90;99.90
20670;DHT22;10494;50.868;4.180;2022-08-01T06:34:56;19.80;99.90
20670;DHT22;10494;50.868;4.180;2022-08-01T06:37:22;19.80;99.90
20670;DHT22;10494;50.868;4.180;2022-08-01T06:39:48;19.60;99.90
20670;DHT22;10494;50.868;4.180;2022-08-01T06:42:15;19.60;99.90
20670;DHT22;10494;50.868;4.180;2022-08-01T06:44:41;19.80;99.90
20670;DHT22;10494;50.868;4.180;2022-08-01T06:47:06;20.40;99.90
20670;DHT22;10494;50.868;4.180;2022-08-01T06:49:32;20.60;99.90
20670;DHT22;10494;50.868;4.180;2022-08-01T06:51:57;20.60;99.90
20670;DHT22;10494;50.868;4.180;2022-08-01T06:54:23;21.00;99.90
20670;DHT22;10494;50.868;4.180;2022-08-01T06:56:49;21.40;99.90
20670;DHT22;10494;50.868;4.180;2022-08-01T06:59:14;21.10;99.90
20670;DHT22;10494;50.868;4.180;2022-08-01T07:01:40;20.90;99.90
20670;DHT22;10494;50.868;4.180;2022-08-01T07:04:06;20.70;99.90
20670;DHT22;10494;50.868;4.180;2022-08-01T07:06:32;20.70;99.90
20670;DHT22;10494;50.868;4.180;2022-08-01T07:08:58;20.90;99.90
20670;DHT22;10494;50.868;4.180;2022-08-01T07:11:23;20.60;99.90
20670;DHT22;10494;50.868;4.180;2022-08-01T07:13:49;20.60;99.90
20670;DHT22;10494;50.868;4.180;2022-08-01T07:16:15;20.50;99.90
20670;DHT22;10494;50.868;4.180;2022-08-01T07:18:42;20.70;99.90
20670;DHT22;10494;50.868;4.180;2022-08-01T07:21:08;21.20;99.90
20670;DHT22;10494;50.868;4.180;2022-08-01T07:23:34;21.30;99.90
20670;DHT22;10494;50.868;4.180;2022-08-01T07:25:59;21.50;99.90
20670;DHT22;10494;50.868;4.180;2022-08-01T07:28:27;21.60;99.90
20670;DHT22;10494;50.868;4.180;2022-08-01T07:30:53;21.20;99.90
20670;DHT22;10494;50.868;4.180;2022-08-01T07:33:18;21.30;99.90
20670;DHT22;10494;50.868;4.180;2022-08-01T07:35:44;21.60;99.90
20670;DHT22;10494;50.868;4.180;2022-08-01T07:38:10;21.70;99.90
20670;DHT22;10494;50.868;4.180;2022-08-01T07:40:35;21.80;99.90
20670;DHT22;10494;50.868;4.180;2022-08-01T07:43:01;22.00;99.90
20670;DHT22;10494;50.868;4.180;2022-08-01T07:45:27;22.10;99.90
20670;DHT22;10494;50.868;4.180;2022-08-01T07:47:53;22.50;99.90
20670;DHT22;10494;50.868;4.180;2022-08-01T07:50:18;22.50;99.90
20670;DHT22;10494;50.868;4.180;2022-08-01T07:52:44;23.00;99.90
20670;DHT22;10494;50.868;4.180;2022-08-01T07:55:11;23.40;99.90
20670;DHT22;10494;50.868;4.180;2022-08-01T07:57:37;23.60;99.90
20670;DHT22;10494;50.868;4.180;2022-08-01T08:00:04;22.70;99.90
20670;DHT22;10494;50.868;4.180;2022-08-01T08:02:31;22.40;99.90
20670;DHT22;10494;50.868;4.180;2022-08-01T08:04:56;22.60;99.90
20670;DHT22;10494;50.868;4.180;2022-08-01T08:07:22;22.70;99.90
20670;DHT22;10494;50.868;4.180;2022-08-01T08:09:47;23.30;99.90
20670;DHT22;10494;50.868;4.180;2022-08-01T08:12:13;23.40;99.90
20670;DHT22;10494;50.868;4.180;2022-08-01T08:14:39;23.40;99.90
20670;DHT22;10494;50.868;4.180;2022-08-01T08:17:05;24.30;99.90
20670;DHT22;10494;50.868;4.180;2022-08-01T08:19:31;25.90;99.90
20670;DHT22;10494;50.868;4.180;2022-08-01T08:21:59;26.90;99.90
20670;DHT22;10494;50.868;4.180;2022-08-01T08:24:25;27.50;99.90
20670;DHT22;10494;50.868;4.180;2022-08-01T08:26:54;28.20;99.90
20670;DHT22;10494;50.868;4.180;2022-08-01T08:29:21;28.30;99.90
20670;DHT22;10494;50.868;4.180;2022-08-01T08:31:47;26.90;99.90
20670;DHT22;10494;50.868;4.180;2022-08-01T08:34:13;26.20;99.90
20670;DHT22;10494;50.868;4.180;2022-08-01T08:36:39;24.90;99.90
20670;DHT22;10494;50.868;4.180;2022-08-01T08:39:05;25.00;99.90
20670;DHT22;10494;50.868;4.180;2022-08-01T08:41:34;24.40;99.90
20670;DHT22;10494;50.868;4.180;2022-08-01T08:44:04;23.30;99.90
20670;DHT22;10494;50.868;4.180;2022-08-01T08:46:31;22.60;99.90
20670;DHT22;10494;50.868;4.180;2022-08-01T08:49:02;22.90;99.90
20670;DHT22;10494;50.868;4.180;2022-08-01T08:51:30;23.20;99.90
20670;DHT22;10494;50.868;4.180;2022-08-01T08:53:57;22.50;99.90
20670;DHT22;10494;50.868;4.180;2022-08-01T08:56:24;22.30;99.90
20670;DHT22;10494;50.868;4.180;2022-08-01T08:58:51;22.60;99.90
20670;DHT22;10494;50.868;4.180;2022-08-01T09:01:17;23.20;99.90
20670;DHT22;10494;50.868;4.180;2022-08-01T09:03:43;23.60;99.90
20670;DHT22;10494;50.868;4.180;2022-08-01T09:06:10;24.80;99.90
20670;DHT22;10494;50.868;4.180;2022-08-01T09:08:36;26.80;99.90
20670;DHT22;10494;50.868;4.180;2022-08-01T09:11:03;28.10;99.90
20670;DHT22;10494;50.868;4.180;2022-08-01T09:13:28;29.50;99.90
20670;DHT22;10494;50.868;4.180;2022-08-01T09:15:55;29.40;99.90
20670;DHT22;10494;50.868;4.180;2022-08-01T09:23:52;25.50;99.90
20670;DHT22;10494;50.868;4.180;2022-08-01T09:26:41;26.30;99.90
20670;DHT22;10494;50.868;4.180;2022-08-01T09:29:07;27.90;99.90
20670;DHT22;10494;50.868;4.180;2022-08-01T09:31:43;27.90;99.90
20670;DHT22;10494;50.868;4.180;2022-08-01T09:34:09;28.00;99.90
20670;DHT22;10494;50.868;4.180;2022-08-01T09:36:54;27.30;99.90
20670;DHT22;10494;50.868;4.180;2022-08-01T09:41:52;28.80;99.90
20670;DHT22;10494;50.868;4.180;2022-08-01T09:44:18;28.50;99.90
20670;DHT22;10494;50.868;4.180;2022-08-01T09:46:54;28.60;99.90
20670;DHT22;10494;50.868;4.180;2022-08-01T09:49:35;29.50;99.90
20670;DHT22;10494;50.868;4.180;2022-08-01T09:52:18;30.10;99.90
20670;DHT22;10494;50.868;4.180;2022-08-01T09:54:52;30.90;99.90
20670;DHT22;10494;50.868;4.180;2022-08-01T09:57:19;30.00;99.90
20670;DHT22;10494;50.868;4.180;2022-08-01T09:59:48;28.80;99.90
20670;DHT22;10494;50.868;4.180;2022-08-01T10:02:30;28.60;99.90
20670;DHT22;10494;50.868;4.180;2022-08-01T10:04:56;28.10;99.90
20670;DHT22;10494;50.868;4.180;2022-08-01T10:07:22;28.50;99.90
20670;DHT22;10494;50.868;4.180;2022-08-01T10:09:48;28.80;99.90
20670;DHT22;10494;50.868;4.180;2022-08-01T10:12:23;29.50;99.90
20670;DHT22;10494;50.868;4.180;2022-08-01T10:14:50;30.20;99.90
20670;DHT22;10494;50.868;4.180;2022-08-01T10:17:19;30.60;99.90
20670;DHT22;10494;50.868;4.180;2022-08-01T10:19:45;30.60;99.90
20670;DHT22;10494;50.868;4.180;2022-08-01T10:22:13;27.90;99.90
20670;DHT22;10494;50.868;4.180;2022-08-01T10:24:44;26.20;99.90
20670;DHT22;10494;50.868;4.180;2022-08-01T10:27:14;26.80;99.90
20670;DHT22;10494;50.868;4.180;2022-08-01T10:29:42;27.50;99.90
20670;DHT22;10494;50.868;4.180;2022-08-01T10:32:09;26.80;99.90
20670;DHT22;10494;50.868;4.180;2022-08-01T10:34:36;25.80;99.90
20670;DHT22;10494;50.868;4.180;2022-08-01T10:37:04;26.80;99.90
20670;DHT22;10494;50.868;4.180;2022-08-01T10:39:31;27.30;99.90
20670;DHT22;10494;50.868;4.180;2022-08-01T10:41:57;28.00;99.90
20670;DHT22;10494;50.868;4.180;2022-08-01T10:44:25;28.10;99.90
20670;DHT22;10494;50.868;4.180;2022-08-01T10:46:57;27.50;99.90
20670;DHT22;10494;50.868;4.180;2022-08-01T10:49:27;26.50;99.90
20670;DHT22;10494;50.868;4.180;2022-08-01T10:51:54;25.60;99.90
20670;DHT22;10494;50.868;4.180;2022-08-01T10:54:24;25.10;99.90
20670;DHT22;10494;50.868;4.180;2022-08-01T10:56:51;25.70;99.90
20670;DHT22;10494;50.868;4.180;2022-08-01T11:01:59;26.10;99.90
20670;DHT22;10494;50.868;4.180;2022-08-01T11:04:51;26.70;99.90
20670;DHT22;10494;50.868;4.180;2022-08-01T11:07:35;26.40;99.90
20670;DHT22;10494;50.868;4.180;2022-08-01T11:10:10;26.30;99.90
20670;DHT22;10494;50.868;4.180;2022-08-01T11:12:41;27.20;99.90
20670;DHT22;10494;50.868;4.180;2022-08-01T11:20:14;27.90;99.90
20670;DHT22;10494;50.868;4.180;2022-08-01T11:30:44;29.00;99.90
20670;DHT22;10494;50.868;4.180;2022-08-01T11:33:12;29.20;99.90
20670;DHT22;10494;50.868;4.180;2022-08-01T11:38:41;28.90;99.90
20670;DHT22;10494;50.868;4.180;2022-08-01T11:44:01;28.60;99.90
20670;DHT22;10494;50.868;4.180;2022-08-01T11:52:01;29.80;99.90
20670;DHT22;10494;50.868;4.180;2022-08-01T11:54:28;30.00;99.90
20670;DHT22;10494;50.868;4.180;2022-08-01T11:56:58;29.80;99.90
20670;DHT22;10494;50.868;4.180;2022-08-01T11:59:25;28.80;99.90
20670;DHT22;10494;50.868;4.180;2022-08-01T12:01:51;27.80;99.90
20670;DHT22;10494;50.868;4.180;2022-08-01T12:04:17;26.90;99.90
20670;DHT22;10494;50.868;4.180;2022-08-01T12:06:42;27.40;99.90
20670;DHT22;10494;50.868;4.180;2022-08-01T12:09:19;26.80;99.90
20670;DHT22;10494;50.868;4.180;2022-08-01T12:11:45;26.80;99.90
20670;DHT22;10494;50.868;4.180;2022-08-01T12:14:17;25.60;99.90
20670;DHT22;10494;50.868;4.180;2022-08-01T12:16:53;25.20;99.90
20670;DHT22;10494;50.868;4.180;2022-08-01T12:19:23;25.50;99.90
20670;DHT22;10494;50.868;4.180;2022-08-01T12:24:35;25.70;99.90
20670;DHT22;10494;50.868;4.180;2022-08-01T12:27:03;25.10;99.90
20670;DHT22;10494;50.868;4.180;2022-08-01T12:29:42;25.00;99.90
20670;DHT22;10494;50.868;4.180;2022-08-01T12:32:29;25.10;99.90
20670;DHT22;10494;50.868;4.180;2022-08-01T12:34:58;25.30;99.90
20670;DHT22;10494;50.868;4.180;2022-08-01T12:37:25;26.20;99.90
20670;DHT22;10494;50.868;4.180;2022-08-01T12:39:51;27.00;99.90
20670;DHT22;10494;50.868;4.180;2022-08-01T12:42:17;26.60;99.90
20670;DHT22;10494;50.868;4.180;2022-08-01T12:44:45;26.70;99.90
20670;DHT22;10494;50.868;4.180;2022-08-01T12:47:12;26.70;99.90
20670;DHT22;10494;50.868;4.180;2022-08-01T12:49:38;26.60;99.90
20670;DHT22;10494;50.868;4.180;2022-08-01T12:52:05;26.80;99.90
20670;DHT22;10494;50.868;4.180;2022-08-01T12:54:43;27.50;99.90
20670;DHT22;10494;50.868;4.180;2022-08-01T12:57:23;27.00;99.90
20670;DHT22;10494;50.868;4.180;2022-08-01T12:59:53;26.70;99.90
20670;DHT22;10494;50.868;4.180;2022-08-01T13:02:19;26.20;99.90
20670;DHT22;10494;50.868;4.180;2022-08-01T13:04:51;26.40;99.90
20670;DHT22;10494;50.868;4.180;2022-08-01T13:07:17;27.20;99.90
20670;DHT22;10494;50.868;4.180;2022-08-01T13:09:50;28.00;99.90
20670;DHT22;10494;50.868;4.180;2022-08-01T13:12:16;27.90;99.90
20670;DHT22;10494;50.868;4.180;2022-08-01T13:14:41;26.00;99.90
20670;DHT22;10494;50.868;4.180;2022-08-01T13:17:07;25.50;99.90
20670;DHT22;10494;50.868;4.180;2022-08-01T13:19:43;25.30;99.90
20670;DHT22;10494;50.868;4.180;2022-08-01T13:22:09;25.70;99.90
20670;DHT22;10494;50.868;4.180;2022-08-01T13:24:34;25.50;99.90
20670;DHT22;10494;50.868;4.180;2022-08-01T13:27:02;25.50;99.90
20670;DHT22;10494;50.868;4.180;2022-08-01T13:29:36;25.60;99.90
20670;DHT22;10494;50.868;4.180;2022-08-01T13:32:14;25.90;99.90
20670;DHT22;10494;50.868;4.180;2022-08-01T13:34:40;25.40;99.90
20670;DHT22;10494;50.868;4.180;2022-08-01T13:37:05;25.20;99.90
20670;DHT22;10494;50.868;4.180;2022-08-01T13:39:31;25.40;99.90
20670;DHT22;10494;50.868;4.180;2022-08-01T13:42:24;25.80;99.90
20670;DHT22;10494;50.868;4.180;2022-08-01T13:44:50;26.00;99.90
20670;DHT22;10494;50.868;4.180;2022-08-01T13:47:16;26.60;99.90
20670;DHT22;10494;50.868;4.180;2022-08-01T13:49:41;27.40;99.90
20670;DHT22;10494;50.868;4.180;2022-08-01T13:52:07;27.20;99.90
20670;DHT22;10494;50.868;4.180;2022-08-01T13:54:33;27.50;99.90
20670;DHT22;10494;50.868;4.180;2022-08-01T13:56:58;27.60;99.90
20670;DHT22;10494;50.868;4.180;2022-08-01T13:59:24;28.00;99.90
20670;DHT22;10494;50.868;4.180;2022-08-01T14:01:50;28.20;99.80
20670;DHT22;10494;50.868;4.180;2022-08-01T14:04:15;28.60;98.70
20670;DHT22;10494;50.868;4.180;2022-08-01T14:06:41;27.60;98.70
20670;DHT22;10494;50.868;4.180;2022-08-01T14:09:07;26.40;99.90
20670;DHT22;10494;50.868;4.180;2022-08-01T14:11:33;26.20;99.90
20670;DHT22;10494;50.868;4.180;2022-08-01T14:13:59;26.20;99.90
20670;DHT22;10494;50.868;4.180;2022-08-01T14:16:24;25.90;99.90
20670;DHT22;10494;50.868;4.180;2022-08-01T14:18:50;25.60;99.90
20670;DHT22;10494;50.868;4.180;2022-08-01T14:21:16;25.50;99.90
20670;DHT22;10494;50.868;4.180;2022-08-01T14:23:42;25.50;99.90
20670;DHT22;10494;50.868;4.180;2022-08-01T14:26:10;25.80;99.90
20670;DHT22;10494;50.868;4.180;2022-08-01T14:28:37;26.70;99.90
20670;DHT22;10494;50.868;4.180;2022-08-01T14:31:02;26.90;99.90
20670;DHT22;10494;50.868;4.180;2022-08-01T14:33:29;27.20;99.90
20670;DHT22;10494;50.868;4.180;2022-08-01T14:35:56;27.80;99.90
20670;DHT22;10494;50.868;4.180;2022-08-01T14:38:21;27.70;99.50
20670;DHT22;10494;50.868;4.180;2022-08-01T14:40:47;27.50;99.90
20670;DHT22;10494;50.868;4.180;2022-08-01T14:43:19;28.00;99.80
20670;DHT22;10494;50.868;4.180;2022-08-01T14:45:46;27.50;99.40
20670;DHT22;10494;50.868;4.180;2022-08-01T14:48:16;26.50;99.90
20670;DHT22;10494;50.868;4.180;2022-08-01T14:50:42;26.20;99.90
20670;DHT22;10494;50.868;4.180;2022-08-01T14:53:07;26.10;99.90
20670;DHT22;10494;50.868;4.180;2022-08-01T14:55:33;26.10;99.90
20670;DHT22;10494;50.868;4.180;2022-08-01T14:57:58;26.10;99.90
20670;DHT22;10494;50.868;4.180;2022-08-01T15:00:24;26.10;99.90
20670;DHT22;10494;50.868;4.180;2022-08-01T15:02:50;25.90;99.90
20670;DHT22;10494;50.868;4.180;2022-08-01T15:05:16;26.50;99.90
20670;DHT22;10494;50.868;4.180;2022-08-01T15:07:41;27.10;99.90
20670;DHT22;10494;50.868;4.180;2022-08-01T15:10:07;27.30;99.90
20670;DHT22;10494;50.868;4.180;2022-08-01T15:12:34;26.60;99.90
20670;DHT22;10494;50.868;4.180;2022-08-01T15:15:00;26.30;99.90
20670;DHT22;10494;50.868;4.180;2022-08-01T15:17:30;26.50;99.90
20670;DHT22;10494;50.868;4.180;2022-08-01T15:19:59;26.20;99.50
20670;DHT22;10494;50.868;4.180;2022-08-01T15:22:25;26.30;99.90
20670;DHT22;10494;50.868;4.180;2022-08-01T15:24:52;26.80;99.90
20670;DHT22;10494;50.868;4.180;2022-08-01T15:27:19;27.10;99.20
20670;DHT22;10494;50.868;4.180;2022-08-01T15:29:45;26.90;99.20
20670;DHT22;10494;50.868;4.180;2022-08-01T15:32:11;26.50;99.00
20670;DHT22;10494;50.868;4.180;2022-08-01T15:34:37;26.20;99.40
20670;DHT22;10494;50.868;4.180;2022-08-01T15:37:04;26.20;99.80
20670;DHT22;10494;50.868;4.180;2022-08-01T15:39:30;26.30;99.50
20670;DHT22;10494;50.868;4.180;2022-08-01T15:42:03;26.30;99.90
20670;DHT22;10494;50.868;4.180;2022-08-01T15:44:29;26.70;99.90
20670;DHT22;10494;50.868;4.180;2022-08-01T15:46:55;27.20;98.80
20670;DHT22;10494;50.868;4.180;2022-08-01T15:49:20;27.70;98.00
20670;DHT22;10494;50.868;4.180;2022-08-01T15:51:48;28.10;97.70
20670;DHT22;10494;50.868;4.180;2022-08-01T15:54:14;28.30;97.10
20670;DHT22;10494;50.868;4.180;2022-08-01T15:56:40;28.40;96.10
20670;DHT22;10494;50.868;4.180;2022-08-01T15:59:06;28.50;94.90
20670;DHT22;10494;50.868;4.180;2022-08-01T16:01:31;27.80;96.00
20670;DHT22;10494;50.868;4.180;2022-08-01T16:03:57;27.60;95.70
20670;DHT22;10494;50.868;4.180;2022-08-01T16:06:24;26.80;95.70
20670;DHT22;10494;50.868;4.180;2022-08-01T16:08:50;26.20;97.60
20670;DHT22;10494;50.868;4.180;2022-08-01T16:11:16;25.90;98.40
20670;DHT22;10494;50.868;4.180;2022-08-01T16:13:42;25.50;98.80
20670;DHT22;10494;50.868;4.180;2022-08-01T16:16:08;25.80;99.10
20670;DHT22;10494;50.868;4.180;2022-08-01T16:18:34;25.90;97.90
20670;DHT22;10494;50.868;4.180;2022-08-01T16:21:00;25.70;98.50
20670;DHT22;10494;50.868;4.180;2022-08-01T16:23:26;25.60;98.70
20670;DHT22;10494;50.868;4.180;2022-08-01T16:25:52;25.80;98.60